Route Details

Aircraft Information
Group: North America Light
Types: B738, B752, B762
Route Data
Distance: 248nm
Duration: 1h 00m
Origin METAR: MMMX 171044Z 26004KT 7SM SCT020 BKN080 14/12 A3034 NOSIG RMK 8/570 HZY CI
Dest. METAR: MMGL 170947Z 12003KT 2SM RA OVC008 17/16 A3018 RMK 60135 8/5// -RA E33 RA B33
Freight Data
(for Aug 18, 2022)
Load Factor:
53%
Manifested Cargo: 52,040lbs
Financial History
Total Freight: 833,937lbs
Average Load: 0lbs/flt
Fuel Used: 104,178lbs
Avg. Fuel Used: 0lbs/flt
Fuel Expense: $66,303
Avg. Fuel Expense: $0
Avg. Fuel Cost: $0/lbs
Total Gross Income: $1,853,826
Pilot Pay: $2,130
Total Expenses: $239,091
Total Revenue: $1,545,513
Average Revenue: $0

Capitol Logistics 761




MMMX
Benito Juárez International Airport
Mexico City, MX
MMGL
Don Miguel Hidalgo y Costilla International Airport
Guadalajara, MX

Activity Log

Date Flight Route Aircraft Duration
07/15/2022 CPX761 OVAGO2A OVAGO UT123 ULUVO ULUVO1B B738 1h 12m
06/19/2022 CPX3120 OVAG2A OVAGO UT123 ULUVO ULUV1B B738 1h 09m
06/11/2022 CPX3120 OVAG1A OVAGO UT123 ULUVO ULUV1B B738 1h 07m
05/27/2022 CPX3120 OVAG1A OVAGO UT123 ULUVO ULUV1B B738 1h 21m
05/11/2022 CPX3120 OVAG1A OVAGO UT123 ULUVO ULUV1B B744 1h 20m
12/29/2021 CPX3120 OVAG1A OVAGO UT123 ULUVO ULUV1A B762 1h 12m
12/15/2019 CPX214 TLC6A TLC UJ18 UPN UJ3 ONGEL ONGEL1A B763 1h 07m
08/12/2019 CPX214 PTJ5A PTJ MLM GDL B763 1h 05m
07/29/2019 CPX214 TLC6A TLC UJ18 UPN UJ3 ONGEL ONGEL1A B763 1h 12m
12/13/2018 CPX216 PTJ5A PTJ UJ65 MLM UJ12 LONKU LONK1C B763 0h 59m